createdAt,value
2022-12-19T00:00:19.591Z,27.83
2022-12-19T00:02:50.889Z,27.40
2022-12-19T00:05:23.267Z,29.70
2022-12-19T00:08:17.253Z,24.83
2022-12-19T00:10:49.477Z,25.67
2022-12-19T00:13:24.925Z,23.97
2022-12-19T00:19:34.963Z,20.50
2022-12-19T00:22:11.059Z,22.10
2022-12-19T00:24:48.546Z,27.83
2022-12-19T00:33:51.424Z,27.83
2022-12-19T00:36:22.816Z,27.80
2022-12-19T00:38:52.124Z,21.30
2022-12-19T00:41:22.817Z,31.27
2022-12-19T00:43:53.734Z,23.10
2022-12-19T00:46:21.576Z,25.50
2022-12-19T00:48:49.396Z,27.20
2022-12-19T00:51:20.397Z,24.67
2022-12-19T00:53:48.872Z,28.67
2022-12-19T00:56:18.566Z,27.03
2022-12-19T00:58:47.503Z,28.67
2022-12-19T01:01:17.561Z,27.43
2022-12-19T01:04:04.451Z,22.07
2022-12-19T01:06:34.751Z,30.47
2022-12-19T01:09:02.658Z,23.83
2022-12-19T01:11:44.240Z,24.87
2022-12-19T01:14:16.078Z,27.63
2022-12-19T01:16:46.899Z,27.23
2022-12-19T01:19:14.631Z,27.40
2022-12-19T01:21:43.585Z,30.87
2022-12-19T01:24:12.577Z,23.63
2022-12-19T01:26:41.445Z,27.03
2022-12-19T01:29:09.130Z,25.00
2022-12-19T01:31:36.721Z,24.90
2022-12-19T01:34:04.424Z,29.33
2022-12-19T01:36:34.728Z,25.30
2022-12-19T01:39:08.656Z,22.10
2022-12-19T01:41:36.618Z,24.43
2022-12-19T01:44:06.246Z,26.23
2022-12-19T01:46:36.340Z,24.60
2022-12-19T01:49:06.225Z,24.00
2022-12-19T01:51:38.974Z,32.07
2022-12-19T01:54:09.442Z,23.33
2022-12-19T01:56:40.389Z,26.17
2022-12-19T01:59:10.681Z,23.03
2022-12-19T02:01:46.715Z,26.30
2022-12-19T02:04:22.985Z,26.30
2022-12-19T02:06:51.035Z,27.17
2022-12-19T02:09:21.026Z,27.00
2022-12-19T02:11:52.548Z,23.33
2022-12-19T02:14:21.003Z,26.57
2022-12-19T02:16:55.574Z,24.70
2022-12-19T02:19:52.970Z,26.70
2022-12-19T02:22:25.595Z,30.30
2022-12-19T02:25:20.944Z,22.37
2022-12-19T02:28:26.929Z,24.97
2022-12-19T02:31:05.376Z,28.00
2022-12-19T02:33:45.740Z,25.67
2022-12-19T02:36:17.645Z,26.07
2022-12-19T02:38:51.274Z,25.80
2022-12-19T02:41:24.492Z,24.93
2022-12-19T02:43:58.872Z,27.03
2022-12-19T02:46:30.521Z,20.40
2022-12-19T02:48:58.251Z,27.83
2022-12-19T02:51:25.922Z,24.80
2022-12-19T02:53:53.564Z,27.47
2022-12-19T02:56:38.054Z,25.07
2022-12-19T02:59:47.432Z,22.80
2022-12-19T03:02:26.636Z,25.70
2022-12-19T03:04:59.521Z,25.33
2022-12-19T03:07:31.407Z,22.63
2022-12-19T03:10:06.482Z,23.83
2022-12-19T03:12:37.640Z,25.70
2022-12-19T03:15:09.870Z,23.73
2022-12-19T03:17:39.296Z,20.57
2022-12-19T03:20:09.916Z,21.87
2022-12-19T03:22:37.567Z,24.13
2022-12-19T03:25:05.793Z,29.50
2022-12-19T03:27:35.398Z,28.27
2022-12-19T03:30:05.655Z,25.30
2022-12-19T03:32:34.465Z,22.50
2022-12-19T03:35:05.795Z,25.30
2022-12-19T03:37:35.698Z,21.70
2022-12-19T03:40:06.455Z,24.00
2022-12-19T03:42:52.830Z,21.73
2022-12-19T03:45:25.128Z,24.87
2022-12-19T03:47:56.251Z,26.33
2022-12-19T03:50:26.372Z,23.20
2022-12-19T03:52:58.771Z,22.67
2022-12-19T03:55:31.499Z,27.10
2022-12-19T03:58:01.179Z,22.93
2022-12-19T04:00:30.397Z,24.40
2022-12-19T04:02:59.082Z,30.80
2022-12-19T04:05:29.228Z,22.93
2022-12-19T04:07:59.636Z,23.67
2022-12-19T04:10:28.458Z,24.50
2022-12-19T04:12:59.954Z,24.97
2022-12-19T04:15:34.720Z,25.97
2022-12-19T04:18:04.706Z,27.50
2022-12-19T04:20:34.980Z,33.17
2022-12-19T04:23:05.947Z,25.10
2022-12-19T04:25:36.005Z,24.83
2022-12-19T04:28:05.529Z,24.50
2022-12-19T04:30:36.763Z,22.00
2022-12-19T04:33:04.932Z,24.87
2022-12-19T04:35:34.115Z,24.00
2022-12-19T04:38:01.820Z,22.23
2022-12-19T04:40:29.918Z,22.20
2022-12-19T04:42:57.554Z,25.10
2022-12-19T04:45:25.306Z,20.17
2022-12-19T04:47:53.191Z,21.53
2022-12-19T04:50:20.773Z,20.90
2022-12-19T04:52:53.227Z,24.97
2022-12-19T04:55:23.367Z,25.37
2022-12-19T04:57:50.930Z,21.43
2022-12-19T05:00:18.630Z,25.93
2022-12-19T05:02:46.573Z,22.73
2022-12-19T05:05:14.395Z,23.20
2022-12-19T05:07:42.002Z,24.07
2022-12-19T05:10:11.501Z,23.03
2022-12-19T05:12:39.117Z,22.97
2022-12-19T05:15:07.910Z,19.90
2022-12-19T05:17:35.710Z,22.53
2022-12-19T05:20:03.417Z,27.30
2022-12-19T05:22:31.138Z,23.10
2022-12-19T05:24:58.739Z,22.53
2022-12-19T05:27:27.648Z,23.60
2022-12-19T05:29:55.420Z,22.67
2022-12-19T05:32:23.935Z,22.17
2022-12-19T05:34:51.553Z,21.90
2022-12-19T05:37:19.103Z,23.20
2022-12-19T05:39:46.645Z,23.87
2022-12-19T05:42:14.229Z,19.53
2022-12-19T05:44:43.171Z,21.07
2022-12-19T05:47:10.760Z,22.93
2022-12-19T05:49:41.045Z,22.00
2022-12-19T05:52:11.509Z,26.67
2022-12-19T05:54:39.289Z,22.60
2022-12-19T05:57:06.874Z,24.10
2022-12-19T05:59:34.464Z,24.07
2022-12-19T06:02:03.466Z,24.00
2022-12-19T06:04:31.443Z,26.40
2022-12-19T06:06:59.217Z,22.17
2022-12-19T06:09:27.069Z,28.10
2022-12-19T06:11:54.647Z,20.70
2022-12-19T06:14:22.600Z,21.07
2022-12-19T06:16:50.788Z,19.80
2022-12-19T06:19:22.410Z,24.70
2022-12-19T06:21:50.001Z,18.13
2022-12-19T06:24:17.832Z,24.97
2022-12-19T06:26:45.632Z,20.80
2022-12-19T06:29:13.230Z,22.10
2022-12-19T06:31:40.950Z,21.30
2022-12-19T06:34:10.207Z,29.03
2022-12-19T06:36:42.443Z,20.30
2022-12-19T06:39:12.983Z,21.57
2022-12-19T06:41:58.806Z,18.60
2022-12-19T06:44:26.464Z,23.33
2022-12-19T06:46:54.632Z,21.20
2022-12-19T06:49:22.369Z,22.70
2022-12-19T06:51:51.284Z,19.80
2022-12-19T06:54:19.018Z,23.40
2022-12-19T06:56:46.611Z,25.27
2022-12-19T06:59:16.147Z,22.73
2022-12-19T07:01:53.335Z,22.60
2022-12-19T07:04:25.137Z,20.60
2022-12-19T07:06:54.176Z,19.87
2022-12-19T07:09:22.504Z,19.60
2022-12-19T07:11:50.104Z,22.03
2022-12-19T07:14:17.865Z,22.37
2022-12-19T07:16:45.869Z,22.63
2022-12-19T07:19:14.121Z,23.00
2022-12-19T07:21:41.990Z,21.80
2022-12-19T07:24:12.196Z,21.73
2022-12-19T07:26:39.958Z,26.27
2022-12-19T07:29:08.346Z,31.53
2022-12-19T07:31:36.241Z,26.90
2022-12-19T07:34:03.891Z,21.30
2022-12-19T07:36:31.716Z,19.73
2022-12-19T07:38:59.288Z,27.93
2022-12-19T07:41:28.254Z,25.07
2022-12-19T07:43:55.855Z,22.77
2022-12-19T07:46:23.483Z,20.27
2022-12-19T07:48:51.662Z,27.67
2022-12-19T07:51:19.323Z,21.97
2022-12-19T07:53:47.021Z,27.20
2022-12-19T07:56:14.838Z,21.20
2022-12-19T07:58:44.663Z,30.30
2022-12-19T08:01:13.247Z,24.67
2022-12-19T08:03:41.001Z,23.30
2022-12-19T08:06:10.350Z,23.47
2022-12-19T08:08:38.567Z,22.93
2022-12-19T08:11:10.787Z,26.83
2022-12-19T08:13:44.659Z,24.93
2022-12-19T08:16:15.963Z,20.00
2022-12-19T08:18:43.722Z,24.43
2022-12-19T08:21:11.828Z,21.93
2022-12-19T08:23:39.622Z,23.50
2022-12-19T08:26:09.657Z,23.90
2022-12-19T08:28:37.845Z,34.90
2022-12-19T08:31:07.725Z,32.53
2022-12-19T08:33:36.795Z,25.10
2022-12-19T08:36:05.914Z,32.63
2022-12-19T08:38:33.939Z,31.83
2022-12-19T08:41:01.684Z,22.80
2022-12-19T08:43:30.393Z,28.10
2022-12-19T08:45:58.600Z,30.23
2022-12-19T08:48:26.643Z,25.10
2022-12-19T08:50:57.669Z,24.90
2022-12-19T08:53:30.338Z,25.57
2022-12-19T08:55:59.428Z,28.93
2022-12-19T08:58:28.217Z,23.80
2022-12-19T09:01:03.327Z,26.07
2022-12-19T09:03:47.063Z,28.30
2022-12-19T09:06:22.090Z,21.97
2022-12-19T09:08:49.856Z,24.73
2022-12-19T09:11:18.574Z,28.77
2022-12-19T09:13:47.877Z,28.30
2022-12-19T09:16:17.578Z,24.53
2022-12-19T09:18:48.706Z,36.83
2022-12-19T09:21:17.158Z,25.57
2022-12-19T09:23:48.799Z,32.80
2022-12-19T09:26:17.640Z,33.83
2022-12-19T09:28:47.718Z,24.27
2022-12-19T09:31:16.682Z,31.53
2022-12-19T09:33:44.672Z,28.13
2022-12-19T09:36:13.496Z,28.37
2022-12-19T09:38:41.151Z,27.30
2022-12-19T09:41:24.980Z,27.63
2022-12-19T09:43:59.291Z,26.80
2022-12-19T09:46:35.748Z,29.60
2022-12-19T09:49:04.045Z,27.20
2022-12-19T09:51:35.570Z,29.70
2022-12-19T09:54:06.842Z,25.27
2022-12-19T09:56:45.540Z,27.10
2022-12-19T09:59:17.533Z,26.27
2022-12-19T10:01:53.266Z,29.37
2022-12-19T10:04:20.965Z,26.73
2022-12-19T10:07:07.878Z,25.40
2022-12-19T10:12:33.146Z,34.53
2022-12-19T10:12:47.994Z,28.03
2022-12-19T10:15:25.939Z,26.20
2022-12-19T10:18:12.136Z,25.77
2022-12-19T10:20:43.342Z,28.03
2022-12-19T10:23:23.484Z,25.33
2022-12-19T10:25:53.597Z,30.80
2022-12-19T10:28:35.852Z,26.60
2022-12-19T10:31:18.835Z,28.50
2022-12-19T10:33:53.287Z,25.07
2022-12-19T10:36:20.908Z,31.30
2022-12-19T10:38:52.203Z,28.13
2022-12-19T10:41:22.214Z,23.90
2022-12-19T10:43:59.230Z,23.57
2022-12-19T10:46:37.394Z,28.03
2022-12-19T10:49:13.059Z,29.90
2022-12-19T10:51:41.065Z,33.83
2022-12-19T10:54:08.883Z,34.57
2022-12-19T10:56:38.029Z,30.83
2022-12-19T10:59:17.109Z,28.00
2022-12-19T11:01:45.128Z,27.90
2022-12-19T11:04:27.656Z,35.40
2022-12-19T11:07:07.109Z,31.87
2022-12-19T11:34:51.640Z,26.30
2022-12-19T11:41:32.013Z,24.00
2022-12-19T11:47:51.096Z,24.40
2022-12-19T11:50:25.210Z,27.80
2022-12-19T11:57:29.238Z,28.17
2022-12-19T12:31:21.758Z,26.90
2022-12-19T12:40:54.363Z,27.70
2022-12-19T12:44:33.756Z,28.87
2022-12-19T12:51:14.229Z,24.00
2022-12-19T12:53:44.491Z,33.07
2022-12-19T12:56:14.039Z,28.30
2022-12-19T12:59:04.213Z,28.00
2022-12-19T13:01:35.985Z,27.17
2022-12-19T13:04:07.345Z,25.33
2022-12-19T13:06:38.459Z,29.03
2022-12-19T13:09:21.923Z,27.63
2022-12-19T13:12:08.674Z,33.10
2022-12-19T13:14:45.879Z,31.00
2022-12-19T13:17:14.488Z,30.40
2022-12-19T13:19:55.685Z,27.50
2022-12-19T13:22:39.462Z,26.70
2022-12-19T13:25:47.706Z,27.93
2022-12-19T13:28:17.654Z,31.53
2022-12-19T13:31:22.853Z,27.60
2022-12-19T13:34:12.483Z,28.27
2022-12-19T13:39:50.808Z,27.77
2022-12-19T13:39:57.945Z,28.40
2022-12-19T13:42:46.987Z,29.20
2022-12-19T13:45:18.723Z,27.73
2022-12-19T13:47:47.043Z,29.07
2022-12-19T13:50:20.278Z,31.33
2022-12-19T13:52:51.254Z,33.57
2022-12-19T13:55:20.979Z,25.77
2022-12-19T13:57:49.196Z,32.63
2022-12-19T14:00:19.771Z,30.53
2022-12-19T14:02:50.349Z,29.00
2022-12-19T14:05:33.809Z,28.77
2022-12-19T14:08:17.697Z,27.37
2022-12-19T14:11:37.743Z,28.57
2022-12-19T14:14:08.463Z,28.20
2022-12-19T14:16:44.608Z,29.00
2022-12-19T14:19:23.713Z,36.23
2022-12-19T14:22:04.242Z,34.43
2022-12-19T14:24:39.947Z,30.13
2022-12-19T14:28:23.894Z,30.90
2022-12-19T14:30:29.035Z,31.63
2022-12-19T14:33:47.423Z,31.80
2022-12-19T14:36:12.224Z,33.03
2022-12-19T14:52:35.436Z,33.53
2022-12-19T14:54:11.219Z,29.87
2022-12-19T14:54:40.046Z,32.13
2022-12-19T15:01:09.439Z,33.47
2022-12-19T15:03:22.678Z,55.20
2022-12-19T15:05:50.996Z,35.60
2022-12-19T15:20:20.828Z,32.63
2022-12-19T15:26:54.756Z,30.70
2022-12-19T15:29:22.548Z,36.00
2022-12-19T15:31:50.343Z,39.63
2022-12-19T15:34:44.820Z,37.53
2022-12-19T15:37:12.690Z,33.90
2022-12-19T15:39:40.880Z,34.90
2022-12-19T15:42:17.356Z,31.60
2022-12-19T15:44:45.390Z,32.03
2022-12-19T15:51:25.293Z,35.50
2022-12-19T15:53:56.996Z,34.53
2022-12-19T15:56:34.645Z,30.60
2022-12-19T15:59:03.169Z,37.93
2022-12-19T16:01:32.778Z,34.43
2022-12-19T16:04:03.350Z,36.83
2022-12-19T16:06:31.311Z,33.30
2022-12-19T16:09:00.784Z,38.40
2022-12-19T16:11:28.534Z,37.30
2022-12-19T16:13:58.206Z,35.73
2022-12-19T16:16:26.388Z,33.43
2022-12-19T16:18:54.112Z,37.77
2022-12-19T16:21:29.652Z,38.03
2022-12-19T16:24:02.977Z,39.27
2022-12-19T16:26:33.382Z,36.20
2022-12-19T16:29:01.381Z,41.20
2022-12-19T16:31:29.535Z,35.60
2022-12-19T16:33:57.220Z,36.13
2022-12-19T16:36:24.860Z,35.10
2022-12-19T16:38:52.445Z,38.30
2022-12-19T16:41:24.799Z,37.67
2022-12-19T16:43:52.765Z,37.30
2022-12-19T16:46:22.243Z,39.60
2022-12-19T16:48:50.557Z,39.70
2022-12-19T16:51:20.233Z,38.70
2022-12-19T17:02:28.013Z,42.13
2022-12-19T17:04:55.779Z,37.73
2022-12-19T17:24:15.711Z,36.60
2022-12-19T17:26:43.790Z,37.27
2022-12-19T17:29:12.284Z,32.10
2022-12-19T17:31:41.032Z,34.20
2022-12-19T17:34:13.446Z,41.53
2022-12-19T17:36:41.050Z,35.27
2022-12-19T17:39:19.282Z,38.03
2022-12-19T17:41:47.290Z,35.47
2022-12-19T17:44:14.846Z,37.43
2022-12-19T17:46:42.461Z,32.63
2022-12-19T17:49:16.925Z,29.57
2022-12-19T17:51:47.577Z,39.37
2022-12-19T17:54:16.710Z,31.73
2022-12-19T17:56:44.704Z,29.93
2022-12-19T18:07:39.621Z,31.47
2022-12-19T18:23:34.288Z,28.57
2022-12-19T18:26:03.968Z,25.77
2022-12-19T18:28:31.795Z,28.70
2022-12-19T18:31:01.259Z,27.17
2022-12-19T18:46:07.073Z,24.60
2022-12-19T18:48:37.786Z,22.53
2022-12-19T18:51:06.807Z,24.73
2022-12-19T18:53:37.880Z,26.90
2022-12-19T18:56:06.552Z,22.67
2022-12-19T18:58:34.296Z,22.60
2022-12-19T19:01:03.096Z,25.13
2022-12-19T19:03:34.279Z,23.67
2022-12-19T19:06:03.620Z,23.00
2022-12-19T19:08:33.509Z,21.40
2022-12-19T19:11:10.145Z,23.70
2022-12-19T19:13:37.738Z,23.60
2022-12-19T19:16:14.891Z,27.97
2022-12-19T19:18:44.853Z,30.20
2022-12-19T19:21:14.205Z,22.77
2022-12-19T19:23:44.273Z,23.07
2022-12-19T19:26:12.005Z,21.70
2022-12-19T19:28:39.893Z,21.07
2022-12-19T19:31:10.126Z,23.47
2022-12-19T19:33:41.432Z,19.87
2022-12-19T19:36:15.629Z,18.83
2022-12-19T19:38:45.159Z,19.03
2022-12-19T19:41:14.524Z,19.20
2022-12-19T19:43:42.316Z,18.60
2022-12-19T19:46:10.234Z,15.23
2022-12-19T19:48:37.867Z,16.67
2022-12-19T19:51:06.069Z,15.60
2022-12-19T19:53:35.969Z,18.00
2022-12-19T19:56:04.812Z,18.10
2022-12-19T19:58:32.532Z,17.43
2022-12-19T20:01:00.339Z,17.73
2022-12-19T20:03:28.260Z,18.60
2022-12-19T20:06:00.377Z,21.20
2022-12-19T20:08:32.217Z,16.80
2022-12-19T20:11:06.259Z,15.87
2022-12-19T20:13:33.862Z,22.30
2022-12-19T20:16:06.315Z,18.97
2022-12-19T20:18:34.195Z,17.27
2022-12-19T20:21:01.837Z,16.73
2022-12-19T20:23:29.517Z,15.10
2022-12-19T20:26:01.503Z,18.40
2022-12-19T20:28:30.925Z,16.00
2022-12-19T20:30:58.739Z,15.40
2022-12-19T20:33:26.385Z,15.53
2022-12-19T20:35:56.845Z,19.67
2022-12-19T20:38:24.597Z,13.50
2022-12-19T20:40:52.761Z,16.43
2022-12-19T20:43:20.419Z,15.20
2022-12-19T20:45:49.618Z,14.30
2022-12-19T20:48:17.230Z,11.77
2022-12-19T20:50:52.321Z,15.33
2022-12-19T20:57:26.692Z,14.27
2022-12-19T20:59:55.611Z,11.90
2022-12-19T21:06:38.149Z,12.93
2022-12-19T21:09:06.585Z,12.20
2022-12-19T21:11:35.605Z,15.57
2022-12-19T21:18:56.340Z,11.00
2022-12-19T21:21:28.539Z,11.50
2022-12-19T21:24:39.791Z,10.50
2022-12-19T21:27:52.690Z,11.27
2022-12-19T21:30:37.933Z,11.80
2022-12-19T21:37:12.314Z,10.60
2022-12-19T21:39:40.423Z,12.83
2022-12-19T21:42:10.479Z,12.07
2022-12-19T21:44:38.875Z,10.23
2022-12-19T21:47:08.845Z,14.20
2022-12-19T21:49:36.981Z,9.90
2022-12-19T21:52:05.207Z,10.80
2022-12-19T21:58:39.366Z,11.77
2022-12-19T22:01:08.516Z,15.90
2022-12-19T22:03:38.335Z,10.70
2022-12-19T22:06:08.607Z,10.83
2022-12-19T22:08:36.785Z,12.30
2022-12-19T22:11:04.476Z,11.07
2022-12-19T22:13:32.041Z,12.30
2022-12-19T22:16:03.564Z,17.80
2022-12-19T22:18:31.308Z,11.53
2022-12-19T22:21:00.236Z,11.63
2022-12-19T22:23:28.381Z,11.83
2022-12-19T22:26:07.565Z,13.90
2022-12-19T22:28:37.026Z,14.27
2022-12-19T22:31:05.395Z,10.80
2022-12-19T22:33:32.981Z,13.50
2022-12-19T22:36:07.271Z,14.70
2022-12-19T22:38:34.946Z,11.17
2022-12-19T22:41:04.279Z,12.67
2022-12-19T22:43:32.364Z,11.87
2022-12-19T22:46:00.052Z,12.00
2022-12-19T22:48:27.692Z,11.17
2022-12-19T22:50:55.422Z,13.10
2022-12-19T22:53:24.385Z,11.50
2022-12-19T22:55:51.906Z,12.60
2022-12-19T22:58:19.467Z,14.23
2022-12-19T23:00:47.199Z,11.37
2022-12-19T23:03:15.877Z,11.17
2022-12-19T23:05:50.123Z,10.63
2022-12-19T23:08:19.349Z,11.97
2022-12-19T23:10:51.916Z,14.30
2022-12-19T23:13:20.532Z,11.23
2022-12-19T23:15:48.175Z,15.33
2022-12-19T23:18:16.006Z,10.23
2022-12-19T23:20:43.835Z,8.77
2022-12-19T23:23:11.792Z,9.80
2022-12-19T23:25:39.728Z,9.90
2022-12-19T23:28:09.187Z,10.07
2022-12-19T23:30:37.099Z,10.23
2022-12-19T23:33:05.032Z,14.10
2022-12-19T23:35:33.214Z,15.07
2022-12-19T23:38:00.777Z,10.63
2022-12-19T23:40:28.307Z,11.60
2022-12-19T23:42:55.935Z,9.93
2022-12-19T23:45:24.849Z,11.03
2022-12-19T23:47:53.312Z,13.37
2022-12-19T23:50:20.825Z,8.70
2022-12-19T23:52:48.392Z,8.40
2022-12-19T23:55:16.373Z,11.17
2022-12-19T23:57:44.136Z,14.37
